sensor_id;sensor_type;location;lat;lon;timestamp;P1;durP1;ratioP1;P2;durP2;ratioP2
13834;SDS011;6988;52.614;13.500;2023-06-24T00:01:11;14.07;;;11.30;;
13834;SDS011;6988;52.614;13.500;2023-06-24T00:06:03;14.43;;;10.93;;
13834;SDS011;6988;52.614;13.500;2023-06-24T00:10:55;14.47;;;11.60;;
13834;SDS011;6988;52.614;13.500;2023-06-24T00:15:47;14.50;;;11.93;;
13834;SDS011;6988;52.614;13.500;2023-06-24T00:20:40;16.30;;;12.67;;
13834;SDS011;6988;52.614;13.500;2023-06-24T00:25:33;16.37;;;13.77;;
13834;SDS011;6988;52.614;13.500;2023-06-24T00:30:25;15.67;;;13.83;;
13834;SDS011;6988;52.614;13.500;2023-06-24T00:35:19;20.90;;;15.97;;
13834;SDS011;6988;52.614;13.500;2023-06-24T00:40:13;23.07;;;15.50;;
13834;SDS011;6988;52.614;13.500;2023-06-24T00:45:07;18.90;;;16.23;;
13834;SDS011;6988;52.614;13.500;2023-06-24T00:50:02;22.27;;;16.73;;
13834;SDS011;6988;52.614;13.500;2023-06-24T00:54:55;20.93;;;16.97;;
13834;SDS011;6988;52.614;13.500;2023-06-24T00:59:48;20.67;;;15.87;;
13834;SDS011;6988;52.614;13.500;2023-06-24T01:04:43;21.37;;;17.20;;
13834;SDS011;6988;52.614;13.500;2023-06-24T01:09:35;22.33;;;17.77;;
13834;SDS011;6988;52.614;13.500;2023-06-24T01:14:27;20.10;;;17.80;;
13834;SDS011;6988;52.614;13.500;2023-06-24T01:19:29;21.60;;;16.40;;
13834;SDS011;6988;52.614;13.500;2023-06-24T01:24:55;20.93;;;16.07;;
13834;SDS011;6988;52.614;13.500;2023-06-24T01:35:33;21.57;;;16.83;;
13834;SDS011;6988;52.614;13.500;2023-06-24T01:40:28;19.50;;;16.50;;
13834;SDS011;6988;52.614;13.500;2023-06-24T01:45:28;19.63;;;16.40;;
13834;SDS011;6988;52.614;13.500;2023-06-24T01:50:27;22.27;;;16.97;;
13834;SDS011;6988;52.614;13.500;2023-06-24T01:55:26;22.57;;;16.60;;
13834;SDS011;6988;52.614;13.500;2023-06-24T02:00:19;20.30;;;16.63;;
13834;SDS011;6988;52.614;13.500;2023-06-24T02:05:15;22.00;;;15.80;;
13834;SDS011;6988;52.614;13.500;2023-06-24T02:10:11;18.77;;;15.63;;
13834;SDS011;6988;52.614;13.500;2023-06-24T02:15:05;20.20;;;15.63;;
13834;SDS011;6988;52.614;13.500;2023-06-24T02:20:00;19.30;;;14.77;;
13834;SDS011;6988;52.614;13.500;2023-06-24T02:24:54;16.90;;;14.47;;
13834;SDS011;6988;52.614;13.500;2023-06-24T02:29:49;20.40;;;15.60;;
13834;SDS011;6988;52.614;13.500;2023-06-24T02:34:42;16.83;;;14.60;;
13834;SDS011;6988;52.614;13.500;2023-06-24T02:39:34;19.63;;;15.17;;
13834;SDS011;6988;52.614;13.500;2023-06-24T02:44:29;17.33;;;14.53;;
13834;SDS011;6988;52.614;13.500;2023-06-24T02:49:22;16.23;;;14.47;;
13834;SDS011;6988;52.614;13.500;2023-06-24T02:54:14;17.47;;;13.60;;
13834;SDS011;6988;52.614;13.500;2023-06-24T02:59:41;16.70;;;14.17;;
13834;SDS011;6988;52.614;13.500;2023-06-24T03:04:37;18.50;;;14.67;;
13834;SDS011;6988;52.614;13.500;2023-06-24T03:09:31;15.30;;;13.70;;
13834;SDS011;6988;52.614;13.500;2023-06-24T03:14:26;16.60;;;14.00;;
13834;SDS011;6988;52.614;13.500;2023-06-24T03:19:18;17.07;;;13.07;;
13834;SDS011;6988;52.614;13.500;2023-06-24T03:24:11;15.87;;;14.23;;
13834;SDS011;6988;52.614;13.500;2023-06-24T03:29:10;18.17;;;14.23;;
13834;SDS011;6988;52.614;13.500;2023-06-24T03:34:08;15.40;;;12.97;;
13834;SDS011;6988;52.614;13.500;2023-06-24T03:39:00;14.90;;;12.97;;
13834;SDS011;6988;52.614;13.500;2023-06-24T03:43:56;17.63;;;14.13;;
13834;SDS011;6988;52.614;13.500;2023-06-24T03:53:41;14.67;;;12.17;;
13834;SDS011;6988;52.614;13.500;2023-06-24T03:58:33;14.60;;;12.87;;
13834;SDS011;6988;52.614;13.500;2023-06-24T04:03:27;17.30;;;13.17;;
13834;SDS011;6988;52.614;13.500;2023-06-24T04:08:19;14.43;;;12.93;;
13834;SDS011;6988;52.614;13.500;2023-06-24T04:13:11;16.47;;;13.00;;
13834;SDS011;6988;52.614;13.500;2023-06-24T04:18:03;19.67;;;12.73;;
13834;SDS011;6988;52.614;13.500;2023-06-24T04:22:57;19.10;;;13.20;;
13834;SDS011;6988;52.614;13.500;2023-06-24T04:27:55;15.67;;;13.13;;
13834;SDS011;6988;52.614;13.500;2023-06-24T04:32:47;16.43;;;13.33;;
13834;SDS011;6988;52.614;13.500;2023-06-24T04:37:39;15.17;;;12.97;;
13834;SDS011;6988;52.614;13.500;2023-06-24T04:42:32;17.83;;;13.30;;
13834;SDS011;6988;52.614;13.500;2023-06-24T04:47:25;17.20;;;13.67;;
13834;SDS011;6988;52.614;13.500;2023-06-24T04:52:16;17.07;;;13.03;;
13834;SDS011;6988;52.614;13.500;2023-06-24T04:57:09;15.90;;;13.53;;
13834;SDS011;6988;52.614;13.500;2023-06-24T05:02:16;16.23;;;13.33;;
13834;SDS011;6988;52.614;13.500;2023-06-24T05:07:10;15.57;;;13.27;;
13834;SDS011;6988;52.614;13.500;2023-06-24T05:12:03;18.50;;;12.57;;
13834;SDS011;6988;52.614;13.500;2023-06-24T05:16:55;18.20;;;11.97;;
13834;SDS011;6988;52.614;13.500;2023-06-24T05:21:48;17.90;;;13.17;;
13834;SDS011;6988;52.614;13.500;2023-06-24T05:26:40;16.13;;;12.70;;
13834;SDS011;6988;52.614;13.500;2023-06-24T05:31:32;15.10;;;13.33;;
13834;SDS011;6988;52.614;13.500;2023-06-24T05:36:24;16.60;;;12.80;;
13834;SDS011;6988;52.614;13.500;2023-06-24T05:41:17;15.97;;;12.20;;
13834;SDS011;6988;52.614;13.500;2023-06-24T05:46:09;18.17;;;13.07;;
13834;SDS011;6988;52.614;13.500;2023-06-24T05:51:01;18.63;;;13.03;;
13834;SDS011;6988;52.614;13.500;2023-06-24T05:55:53;15.50;;;12.63;;
13834;SDS011;6988;52.614;13.500;2023-06-24T06:00:46;15.07;;;12.83;;
13834;SDS011;6988;52.614;13.500;2023-06-24T06:05:39;17.47;;;11.43;;
13834;SDS011;6988;52.614;13.500;2023-06-24T06:10:31;13.43;;;11.83;;
13834;SDS011;6988;52.614;13.500;2023-06-24T06:15:22;16.73;;;11.50;;
13834;SDS011;6988;52.614;13.500;2023-06-24T06:20:16;12.87;;;11.03;;
13834;SDS011;6988;52.614;13.500;2023-06-24T06:25:08;13.57;;;10.53;;
13834;SDS011;6988;52.614;13.500;2023-06-24T06:30:00;16.20;;;11.20;;
13834;SDS011;6988;52.614;13.500;2023-06-24T06:34:52;12.23;;;10.10;;
13834;SDS011;6988;52.614;13.500;2023-06-24T06:39:45;14.07;;;10.70;;
13834;SDS011;6988;52.614;13.500;2023-06-24T06:44:37;10.97;;;9.87;;
13834;SDS011;6988;52.614;13.500;2023-06-24T06:49:28;14.40;;;9.77;;
13834;SDS011;6988;52.614;13.500;2023-06-24T06:54:20;10.47;;;8.87;;
13834;SDS011;6988;52.614;13.500;2023-06-24T06:59:14;11.57;;;8.90;;
13834;SDS011;6988;52.614;13.500;2023-06-24T07:04:06;10.90;;;9.07;;
13834;SDS011;6988;52.614;13.500;2023-06-24T07:08:58;11.83;;;8.93;;
13834;SDS011;6988;52.614;13.500;2023-06-24T07:13:50;12.53;;;9.33;;
13834;SDS011;6988;52.614;13.500;2023-06-24T07:18:44;11.50;;;8.47;;
13834;SDS011;6988;52.614;13.500;2023-06-24T07:23:36;11.30;;;8.13;;
13834;SDS011;6988;52.614;13.500;2023-06-24T07:28:28;9.10;;;7.83;;
13834;SDS011;6988;52.614;13.500;2023-06-24T07:33:19;9.17;;;7.53;;
13834;SDS011;6988;52.614;13.500;2023-06-24T07:38:13;8.90;;;7.70;;
13834;SDS011;6988;52.614;13.500;2023-06-24T07:43:05;8.40;;;7.57;;
13834;SDS011;6988;52.614;13.500;2023-06-24T07:47:56;9.40;;;6.73;;
13834;SDS011;6988;52.614;13.500;2023-06-24T07:52:49;9.13;;;6.27;;
13834;SDS011;6988;52.614;13.500;2023-06-24T07:57:45;7.57;;;6.60;;
13834;SDS011;6988;52.614;13.500;2023-06-24T08:02:37;9.70;;;5.30;;
13834;SDS011;6988;52.614;13.500;2023-06-24T08:07:29;7.27;;;5.60;;
13834;SDS011;6988;52.614;13.500;2023-06-24T08:12:21;7.47;;;5.63;;
13834;SDS011;6988;52.614;13.500;2023-06-24T08:17:14;8.00;;;5.57;;
13834;SDS011;6988;52.614;13.500;2023-06-24T08:22:06;7.05;;;5.60;;
13834;SDS011;6988;52.614;13.500;2023-06-24T08:26:58;7.43;;;5.30;;
13834;SDS011;6988;52.614;13.500;2023-06-24T08:31:50;7.38;;;5.20;;
13834;SDS011;6988;52.614;13.500;2023-06-24T08:36:43;8.57;;;5.77;;
13834;SDS011;6988;52.614;13.500;2023-06-24T08:41:35;9.50;;;5.63;;
13834;SDS011;6988;52.614;13.500;2023-06-24T08:46:27;5.57;;;5.07;;
13834;SDS011;6988;52.614;13.500;2023-06-24T08:51:21;6.00;;;4.93;;
13834;SDS011;6988;52.614;13.500;2023-06-24T08:56:19;6.32;;;5.28;;
13834;SDS011;6988;52.614;13.500;2023-06-24T09:01:12;6.00;;;4.90;;
13834;SDS011;6988;52.614;13.500;2023-06-24T09:06:04;7.40;;;5.10;;
13834;SDS011;6988;52.614;13.500;2023-06-24T09:10:55;6.07;;;4.63;;
13834;SDS011;6988;52.614;13.500;2023-06-24T09:15:49;5.38;;;4.63;;
13834;SDS011;6988;52.614;13.500;2023-06-24T09:20:41;4.95;;;4.30;;
13834;SDS011;6988;52.614;13.500;2023-06-24T09:25:36;6.93;;;4.75;;
13834;SDS011;6988;52.614;13.500;2023-06-24T09:30:28;6.70;;;4.63;;
13834;SDS011;6988;52.614;13.500;2023-06-24T09:35:22;6.07;;;4.72;;
13834;SDS011;6988;52.614;13.500;2023-06-24T09:40:15;6.80;;;3.90;;
13834;SDS011;6988;52.614;13.500;2023-06-24T09:45:07;5.30;;;4.25;;
13834;SDS011;6988;52.614;13.500;2023-06-24T09:50:00;10.27;;;4.15;;
13834;SDS011;6988;52.614;13.500;2023-06-24T09:54:54;5.22;;;4.18;;
13834;SDS011;6988;52.614;13.500;2023-06-24T09:59:47;4.90;;;4.32;;
13834;SDS011;6988;52.614;13.500;2023-06-24T10:04:40;6.05;;;4.80;;
13834;SDS011;6988;52.614;13.500;2023-06-24T10:09:32;4.32;;;3.88;;
13834;SDS011;6988;52.614;13.500;2023-06-24T10:14:26;5.15;;;4.10;;
13834;SDS011;6988;52.614;13.500;2023-06-24T10:19:19;6.55;;;4.13;;
13834;SDS011;6988;52.614;13.500;2023-06-24T10:24:12;4.90;;;4.13;;
13834;SDS011;6988;52.614;13.500;2023-06-24T10:29:08;4.00;;;3.42;;
13834;SDS011;6988;52.614;13.500;2023-06-24T10:34:12;3.90;;;3.60;;
13834;SDS011;6988;52.614;13.500;2023-06-24T10:44:44;5.88;;;3.83;;
13834;SDS011;6988;52.614;13.500;2023-06-24T10:49:38;4.53;;;3.45;;
13834;SDS011;6988;52.614;13.500;2023-06-24T10:54:30;4.82;;;3.75;;
13834;SDS011;6988;52.614;13.500;2023-06-24T10:59:22;7.45;;;3.78;;
13834;SDS011;6988;52.614;13.500;2023-06-24T11:04:14;3.70;;;3.40;;
13834;SDS011;6988;52.614;13.500;2023-06-24T11:09:10;5.50;;;3.50;;
13834;SDS011;6988;52.614;13.500;2023-06-24T11:14:02;4.55;;;3.28;;
13834;SDS011;6988;52.614;13.500;2023-06-24T11:18:54;4.82;;;3.60;;
13834;SDS011;6988;52.614;13.500;2023-06-24T11:23:46;4.68;;;3.45;;
13834;SDS011;6988;52.614;13.500;2023-06-24T11:28:39;4.25;;;3.53;;
13834;SDS011;6988;52.614;13.500;2023-06-24T11:33:31;8.60;;;3.95;;
13834;SDS011;6988;52.614;13.500;2023-06-24T11:38:23;4.45;;;3.67;;
13834;SDS011;6988;52.614;13.500;2023-06-24T11:43:22;5.65;;;3.45;;
13834;SDS011;6988;52.614;13.500;2023-06-24T11:48:18;5.45;;;3.53;;
13834;SDS011;6988;52.614;13.500;2023-06-24T11:53:11;4.57;;;3.50;;
13834;SDS011;6988;52.614;13.500;2023-06-24T11:58:03;5.78;;;3.97;;
13834;SDS011;6988;52.614;13.500;2023-06-24T12:02:56;4.75;;;4.28;;
13834;SDS011;6988;52.614;13.500;2023-06-24T12:07:51;4.05;;;3.65;;
13834;SDS011;6988;52.614;13.500;2023-06-24T12:12:46;4.95;;;3.83;;
13834;SDS011;6988;52.614;13.500;2023-06-24T12:17:38;8.57;;;3.78;;
13834;SDS011;6988;52.614;13.500;2023-06-24T12:22:30;5.55;;;3.47;;
13834;SDS011;6988;52.614;13.500;2023-06-24T12:27:23;4.28;;;3.83;;
13834;SDS011;6988;52.614;13.500;2023-06-24T12:32:15;5.25;;;3.78;;
13834;SDS011;6988;52.614;13.500;2023-06-24T12:37:06;3.90;;;3.50;;
13834;SDS011;6988;52.614;13.500;2023-06-24T12:41:58;7.20;;;3.42;;
13834;SDS011;6988;52.614;13.500;2023-06-24T12:46:51;4.15;;;3.60;;
13834;SDS011;6988;52.614;13.500;2023-06-24T12:51:43;4.40;;;3.92;;
13834;SDS011;6988;52.614;13.500;2023-06-24T12:56:35;4.20;;;3.80;;
13834;SDS011;6988;52.614;13.500;2023-06-24T13:01:27;4.45;;;4.03;;
13834;SDS011;6988;52.614;13.500;2023-06-24T13:06:20;4.57;;;4.18;;
13834;SDS011;6988;52.614;13.500;2023-06-24T13:11:12;5.35;;;3.90;;
13834;SDS011;6988;52.614;13.500;2023-06-24T13:16:04;4.38;;;3.97;;
13834;SDS011;6988;52.614;13.500;2023-06-24T13:20:56;4.65;;;3.90;;
13834;SDS011;6988;52.614;13.500;2023-06-24T13:25:49;4.35;;;3.95;;
13834;SDS011;6988;52.614;13.500;2023-06-24T13:30:41;4.38;;;3.70;;
13834;SDS011;6988;52.614;13.500;2023-06-24T13:35:33;4.75;;;4.22;;
13834;SDS011;6988;52.614;13.500;2023-06-24T13:40:25;4.40;;;4.00;;
13834;SDS011;6988;52.614;13.500;2023-06-24T13:45:18;8.52;;;4.78;;
13834;SDS011;6988;52.614;13.500;2023-06-24T13:50:10;4.40;;;4.00;;
13834;SDS011;6988;52.614;13.500;2023-06-24T13:55:02;4.75;;;4.00;;
13834;SDS011;6988;52.614;13.500;2023-06-24T13:59:56;6.25;;;4.03;;
13834;SDS011;6988;52.614;13.500;2023-06-24T14:04:49;4.95;;;4.28;;
13834;SDS011;6988;52.614;13.500;2023-06-24T14:09:41;5.25;;;4.10;;
13834;SDS011;6988;52.614;13.500;2023-06-24T14:14:34;7.50;;;4.10;;
13834;SDS011;6988;52.614;13.500;2023-06-24T14:19:28;4.35;;;3.95;;
13834;SDS011;6988;52.614;13.500;2023-06-24T14:24:21;5.57;;;4.13;;
13834;SDS011;6988;52.614;13.500;2023-06-24T14:29:13;4.47;;;3.83;;
13834;SDS011;6988;52.614;13.500;2023-06-24T14:34:05;4.05;;;3.65;;
13834;SDS011;6988;52.614;13.500;2023-06-24T14:38:57;4.07;;;3.78;;
13834;SDS011;6988;52.614;13.500;2023-06-24T14:43:50;7.05;;;4.22;;
13834;SDS011;6988;52.614;13.500;2023-06-24T14:48:43;4.55;;;4.07;;
13834;SDS011;6988;52.614;13.500;2023-06-24T14:53:34;5.05;;;3.53;;
13834;SDS011;6988;52.614;13.500;2023-06-24T14:58:26;4.53;;;3.92;;
13834;SDS011;6988;52.614;13.500;2023-06-24T15:03:19;5.30;;;3.95;;
13834;SDS011;6988;52.614;13.500;2023-06-24T15:08:11;3.85;;;3.47;;
13834;SDS011;6988;52.614;13.500;2023-06-24T15:13:03;3.63;;;3.25;;
13834;SDS011;6988;52.614;13.500;2023-06-24T15:17:55;4.55;;;3.63;;
13834;SDS011;6988;52.614;13.500;2023-06-24T15:22:48;4.30;;;3.85;;
13834;SDS011;6988;52.614;13.500;2023-06-24T15:27:40;5.05;;;3.90;;
13834;SDS011;6988;52.614;13.500;2023-06-24T15:32:32;6.30;;;4.13;;
13834;SDS011;6988;52.614;13.500;2023-06-24T15:37:24;4.25;;;3.85;;
13834;SDS011;6988;52.614;13.500;2023-06-24T15:42:17;4.30;;;3.90;;
13834;SDS011;6988;52.614;13.500;2023-06-24T15:47:09;4.22;;;3.83;;
13834;SDS011;6988;52.614;13.500;2023-06-24T15:52:01;4.53;;;3.85;;
13834;SDS011;6988;52.614;13.500;2023-06-24T15:56:53;5.07;;;4.00;;
13834;SDS011;6988;52.614;13.500;2023-06-24T16:01:46;6.18;;;4.03;;
13834;SDS011;6988;52.614;13.500;2023-06-24T16:06:38;5.47;;;4.15;;
13834;SDS011;6988;52.614;13.500;2023-06-24T16:11:30;4.88;;;3.70;;
13834;SDS011;6988;52.614;13.500;2023-06-24T16:16:22;4.43;;;3.38;;
13834;SDS011;6988;52.614;13.500;2023-06-24T16:21:15;3.75;;;3.45;;
13834;SDS011;6988;52.614;13.500;2023-06-24T16:26:07;5.82;;;4.05;;
13834;SDS011;6988;52.614;13.500;2023-06-24T16:30:59;6.03;;;3.83;;
13834;SDS011;6988;52.614;13.500;2023-06-24T16:35:51;4.80;;;3.45;;
13834;SDS011;6988;52.614;13.500;2023-06-24T16:40:44;5.72;;;3.88;;
13834;SDS011;6988;52.614;13.500;2023-06-24T16:45:36;5.53;;;4.15;;
13834;SDS011;6988;52.614;13.500;2023-06-24T16:50:28;4.25;;;3.53;;
13834;SDS011;6988;52.614;13.500;2023-06-24T16:55:20;4.10;;;3.53;;
13834;SDS011;6988;52.614;13.500;2023-06-24T17:00:14;4.88;;;3.35;;
13834;SDS011;6988;52.614;13.500;2023-06-24T17:05:07;4.90;;;3.63;;
13834;SDS011;6988;52.614;13.500;2023-06-24T17:09:58;5.35;;;3.40;;
13834;SDS011;6988;52.614;13.500;2023-06-24T17:14:50;4.38;;;3.30;;
13834;SDS011;6988;52.614;13.500;2023-06-24T17:19:43;5.88;;;3.80;;
13834;SDS011;6988;52.614;13.500;2023-06-24T17:24:35;3.45;;;3.15;;
13834;SDS011;6988;52.614;13.500;2023-06-24T17:29:27;4.07;;;3.67;;
13834;SDS011;6988;52.614;13.500;2023-06-24T17:34:19;3.97;;;3.15;;
13834;SDS011;6988;52.614;13.500;2023-06-24T17:39:12;6.95;;;3.83;;
13834;SDS011;6988;52.614;13.500;2023-06-24T17:44:04;3.78;;;3.25;;
13834;SDS011;6988;52.614;13.500;2023-06-24T17:48:56;4.50;;;3.50;;
13834;SDS011;6988;52.614;13.500;2023-06-24T17:53:47;4.70;;;3.17;;
13834;SDS011;6988;52.614;13.500;2023-06-24T17:58:41;4.72;;;3.47;;
13834;SDS011;6988;52.614;13.500;2023-06-24T18:03:33;4.47;;;3.67;;
13834;SDS011;6988;52.614;13.500;2023-06-24T18:08:26;5.13;;;3.53;;
13834;SDS011;6988;52.614;13.500;2023-06-24T18:13:18;6.78;;;4.20;;
13834;SDS011;6988;52.614;13.500;2023-06-24T18:18:11;5.18;;;3.70;;
13834;SDS011;6988;52.614;13.500;2023-06-24T18:23:03;7.07;;;3.60;;
13834;SDS011;6988;52.614;13.500;2023-06-24T18:27:55;5.32;;;3.92;;
13834;SDS011;6988;52.614;13.500;2023-06-24T18:32:47;5.22;;;4.15;;
13834;SDS011;6988;52.614;13.500;2023-06-24T18:37:40;7.28;;;3.70;;
13834;SDS011;6988;52.614;13.500;2023-06-24T18:42:32;4.63;;;4.20;;
13834;SDS011;6988;52.614;13.500;2023-06-24T18:47:24;5.30;;;3.88;;
13834;SDS011;6988;52.614;13.500;2023-06-24T18:52:15;4.35;;;3.50;;
13834;SDS011;6988;52.614;13.500;2023-06-24T18:57:08;5.40;;;3.97;;
13834;SDS011;6988;52.614;13.500;2023-06-24T19:02:00;6.05;;;4.35;;
13834;SDS011;6988;52.614;13.500;2023-06-24T19:06:52;6.05;;;4.15;;
13834;SDS011;6988;52.614;13.500;2023-06-24T19:11:44;4.82;;;4.00;;
13834;SDS011;6988;52.614;13.500;2023-06-24T19:16:38;6.10;;;4.40;;
13834;SDS011;6988;52.614;13.500;2023-06-24T19:21:30;5.63;;;4.13;;
13834;SDS011;6988;52.614;13.500;2023-06-24T19:26:22;5.20;;;4.28;;
13834;SDS011;6988;52.614;13.500;2023-06-24T19:31:14;5.22;;;4.45;;
13834;SDS011;6988;52.614;13.500;2023-06-24T19:36:08;7.05;;;4.90;;
13834;SDS011;6988;52.614;13.500;2023-06-24T19:41:00;5.95;;;4.95;;
13834;SDS011;6988;52.614;13.500;2023-06-24T19:45:51;7.85;;;5.25;;
13834;SDS011;6988;52.614;13.500;2023-06-24T19:50:43;5.35;;;4.85;;
13834;SDS011;6988;52.614;13.500;2023-06-24T19:55:36;5.65;;;4.75;;
13834;SDS011;6988;52.614;13.500;2023-06-24T20:00:28;7.70;;;5.13;;
13834;SDS011;6988;52.614;13.500;2023-06-24T20:05:20;7.63;;;5.28;;
13834;SDS011;6988;52.614;13.500;2023-06-24T20:10:12;9.95;;;5.53;;
13834;SDS011;6988;52.614;13.500;2023-06-24T20:15:06;6.85;;;5.22;;
13834;SDS011;6988;52.614;13.500;2023-06-24T20:19:59;6.00;;;5.18;;
13834;SDS011;6988;52.614;13.500;2023-06-24T20:24:51;6.25;;;5.15;;
13834;SDS011;6988;52.614;13.500;2023-06-24T20:29:43;6.00;;;4.70;;
13834;SDS011;6988;52.614;13.500;2023-06-24T20:34:36;7.70;;;5.15;;
13834;SDS011;6988;52.614;13.500;2023-06-24T20:39:28;7.73;;;5.10;;
13834;SDS011;6988;52.614;13.500;2023-06-24T20:44:19;5.68;;;5.05;;
13834;SDS011;6988;52.614;13.500;2023-06-24T20:49:11;6.20;;;4.87;;
13834;SDS011;6988;52.614;13.500;2023-06-24T20:54:05;8.43;;;5.17;;
13834;SDS011;6988;52.614;13.500;2023-06-24T20:58:57;8.27;;;5.57;;
13834;SDS011;6988;52.614;13.500;2023-06-24T21:03:48;5.93;;;5.07;;
13834;SDS011;6988;52.614;13.500;2023-06-24T21:08:43;5.47;;;4.87;;
13834;SDS011;6988;52.614;13.500;2023-06-24T21:13:36;7.30;;;5.13;;
13834;SDS011;6988;52.614;13.500;2023-06-24T21:18:28;7.43;;;5.10;;
13834;SDS011;6988;52.614;13.500;2023-06-24T21:23:20;12.30;;;6.30;;
13834;SDS011;6988;52.614;13.500;2023-06-24T21:28:12;8.90;;;6.87;;
13834;SDS011;6988;52.614;13.500;2023-06-24T21:33:05;9.80;;;7.00;;
13834;SDS011;6988;52.614;13.500;2023-06-24T21:37:57;9.37;;;7.57;;
13834;SDS011;6988;52.614;13.500;2023-06-24T21:42:49;8.40;;;7.43;;
13834;SDS011;6988;52.614;13.500;2023-06-24T22:04:14;10.00;;;8.33;;
13834;SDS011;6988;52.614;13.500;2023-06-24T22:09:05;8.90;;;8.03;;
13834;SDS011;6988;52.614;13.500;2023-06-24T22:13:57;10.27;;;8.87;;
13834;SDS011;6988;52.614;13.500;2023-06-24T22:18:49;10.87;;;8.60;;
13834;SDS011;6988;52.614;13.500;2023-06-24T22:23:42;10.27;;;7.50;;
13834;SDS011;6988;52.614;13.500;2023-06-24T22:28:34;10.80;;;8.63;;
13834;SDS011;6988;52.614;13.500;2023-06-24T22:33:26;11.60;;;9.07;;
13834;SDS011;6988;52.614;13.500;2023-06-24T22:38:18;12.10;;;8.50;;
13834;SDS011;6988;52.614;13.500;2023-06-24T22:43:11;13.43;;;9.47;;
13834;SDS011;6988;52.614;13.500;2023-06-24T22:48:03;10.53;;;8.50;;
13834;SDS011;6988;52.614;13.500;2023-06-24T22:52:56;9.77;;;7.90;;
13834;SDS011;6988;52.614;13.500;2023-06-24T22:57:48;12.00;;;9.03;;
13834;SDS011;6988;52.614;13.500;2023-06-24T23:02:42;21.37;;;13.73;;
13834;SDS011;6988;52.614;13.500;2023-06-24T23:07:34;21.27;;;14.17;;
13834;SDS011;6988;52.614;13.500;2023-06-24T23:12:26;24.03;;;17.60;;
13834;SDS011;6988;52.614;13.500;2023-06-24T23:17:19;19.93;;;13.40;;
13834;SDS011;6988;52.614;13.500;2023-06-24T23:22:14;14.87;;;11.00;;
13834;SDS011;6988;52.614;13.500;2023-06-24T23:27:09;14.87;;;9.57;;
13834;SDS011;6988;52.614;13.500;2023-06-24T23:32:04;10.13;;;8.90;;
13834;SDS011;6988;52.614;13.500;2023-06-24T23:36:57;9.57;;;8.57;;
13834;SDS011;6988;52.614;13.500;2023-06-24T23:41:51;11.73;;;9.57;;
13834;SDS011;6988;52.614;13.500;2023-06-24T23:46:43;14.00;;;10.13;;
13834;SDS011;6988;52.614;13.500;2023-06-24T23:51:35;12.67;;;10.10;;
13834;SDS011;6988;52.614;13.500;2023-06-24T23:56:27;13.07;;;10.67;;
